CheckWX is a tool to help pilots better visualize weather data.  It is not intended as a substitute for an official pre-flight weather briefing.

19:02:33 UTC

CYCD METAR
Nanaimo Airport
Nanaimo, , Canada
Current

1 hour ago

CYCD 191800Z 00000KT 8SM FEW025 BKN042 OVC082 01/M00 A3014 RMK SC2SC3AC3 SH S-NW SLP208
Observed
Feb-19 @ 18:00 UTC
Visibility
8 SM
Flight Rules
VFR
Cloud Levels
  • Few at 2,500' AGL
  • Broken at 4,200' AGL
  • Overcast at 8,200' AGL
Temperature
C / 34°F
Dewpoint
C / 32°F
Humidity
93%
Altimeter
30.14" Hg
Pressure
1020.8 hPa
Previous

2 hours ago

CYCD 191700Z 00000KT 20SM SCT035 BKN058 OVC100 01/M00 A3016 RMK SC3SC3AC2 SLP217
Observed
Feb-19 @ 17:00 UTC
Visibility
20 SM
Flight Rules
VFR
Cloud Levels
  • Scattered at 3,500' AGL
  • Broken at 5,800' AGL
  • Overcast at 10,000' AGL
Temperature
C / 34°F
Dewpoint
C / 32°F
Humidity
93%
Altimeter
30.16" Hg
Pressure
1021.7 hPa
Previous

3 hours ago

CYCD 191600Z 28002KT 25SM OVC044 01/M01 A3018 RMK SC8 SLP224
Observed
Feb-19 @ 16:00 UTC
Wind
  • 280° at 2 KTS
Visibility
25 SM
Flight Rules
VFR
Cloud Levels
  • Overcast at 4,400' AGL
Temperature
C / 34°F
Dewpoint
-1°C / 30°F
Humidity
87%
Altimeter
30.18" Hg
Pressure
1022.4 hPa